PWSweather.com
Personal Weather Stations
Station Observations
KAZSIERR7
Canyon De Flores, Sierra Vista, AZ 85650

Canyon De FloresSierra Vista, AZ 85650

Lat: 31.5, Lon: -110.26

Elevation: 4645

Station Type: LaCrosse WS-3610 & Boltek Lightning Detector

http://www.lightningring.com/weather/

High Low Average
Temperature 55.1°F12.8°C 44.5°F6.9°C 49.8°F9.9°C
Dew Point 32.5°F0.3°C 9.9°F-12.3°C 24.0°F-4.4°C
Winds 16.1 mph 25.9 kmh 0.6 mph 1.0 kmh 10.0 mph WSW16.1 kmh WSW
Wind Gusts 70.2 mph113.0 kmh 8.0 mph12.9 kmh 55.0 mph88.5 kmh
Humidity 53% 20% 38%
Pressure 29.88 in1011.9 mb 29.75 in1007.5 mb -
Precipitation 0.00 in0.0 mm - -
Hour Temp Dew Point Humidity Winds Wind Gusts Pressure Precip Precip Rate Daily Precip Total
12:02 AM 53.7°F12.1°C 19.4°F-7.0°C 26% 15.1 mph SW24.3 kmh SW 61.2 mph98.5 kmh 29.75 in1007.5 mb 0.00 in0.0 mm 0.00 in/hr0.0 mm/hr 0.00 in0.0 mm
12:12 AM 53.5°F11.9°C 19.3°F-7.1°C 26% 14.8 mph SW23.8 kmh SW 52.6 mph84.7 kmh 29.75 in1007.5 mb 0.00 in0.0 mm 0.00 in/hr0.0 mm/hr 0.00 in0.0 mm
12:23 AM 53.0°F11.7°C 19.7°F-6.8°C 27% 12.0 mph WNW19.3 kmh WNW 68.8 mph110.7 kmh 29.76 in1007.8 mb 0.00 in0.0 mm 0.00 in/hr0.0 mm/hr 0.00 in0.0 mm
12:33 AM 52.6°F11.4°C 20.2°F-6.6°C 28% 13.9 mph SW22.4 kmh SW 70.2 mph113.0 kmh 29.76 in1007.8 mb 0.00 in0.0 mm 0.00 in/hr0.0 mm/hr 0.00 in0.0 mm
12:44 AM 52.1°F11.2°C 19.8°F-6.8°C 28% 13.9 mph WNW22.4 kmh WNW 54.0 mph86.9 kmh 29.77 in1008.1 mb 0.00 in0.0 mm 0.00 in/hr0.0 mm/hr 0.00 in0.0 mm
12:54 AM 51.9°F11.1°C 17.0°F-8.3°C 25% 11.0 mph W17.7 kmh W 59.0 mph95.0 kmh 29.75 in1007.5 mb 0.00 in0.0 mm 0.00 in/hr0.0 mm/hr 0.00 in0.0 mm
01:05 AM 51.4°F10.8°C 13.7°F-10.2°C 22% 12.9 mph WSW20.8 kmh WSW 59.8 mph96.2 kmh 29.76 in1007.8 mb 0.00 in0.0 mm 0.00 in/hr0.0 mm/hr 0.00 in0.0 mm
01:15 AM 51.0°F10.6°C 12.3°F-10.9°C 21% 11.7 mph SW18.8 kmh SW 56.2 mph90.4 kmh 29.76 in1007.8 mb 0.00 in0.0 mm 0.00 in/hr0.0 mm/hr 0.00 in0.0 mm
01:26 AM 50.8°F10.4°C 12.2°F-11.0°C 21% 14.2 mph SSW22.9 kmh SSW 59.0 mph95.0 kmh 29.76 in1007.8 mb 0.00 in0.0 mm 0.00 in/hr0.0 mm/hr 0.00 in0.0 mm
01:36 AM 50.5°F10.3°C 12.9°F-10.6°C 22% 13.5 mph W21.7 kmh W 54.4 mph87.5 kmh 29.77 in1008.1 mb 0.00 in0.0 mm 0.00 in/hr0.0 mm/hr 0.00 in0.0 mm
01:47 AM 49.9°F9.9°C 11.4°F-11.4°C 21% 9.9 mph WSW15.9 kmh WSW 53.6 mph86.3 kmh 29.77 in1008.1 mb 0.00 in0.0 mm 0.00 in/hr0.0 mm/hr 0.00 in0.0 mm
01:57 AM 49.6°F9.8°C 13.2°F-10.4°C 23% 12.3 mph WSW19.8 kmh WSW 59.8 mph96.2 kmh 29.76 in1007.8 mb 0.00 in0.0 mm 0.00 in/hr0.0 mm/hr 0.00 in0.0 mm
02:08 AM 49.4°F9.7°C 11.0°F-11.7°C 21% 11.7 mph WSW18.8 kmh WSW 57.2 mph92.1 kmh 29.77 in1008.1 mb 0.00 in0.0 mm 0.00 in/hr0.0 mm/hr 0.00 in0.0 mm
02:19 AM 49.4°F9.7°C 9.9°F-12.3°C 20% 12.6 mph SW20.3 kmh SW 54.0 mph86.9 kmh 29.77 in1008.1 mb 0.00 in0.0 mm 0.00 in/hr0.0 mm/hr 0.00 in0.0 mm
02:30 AM 49.0°F9.4°C 10.7°F-11.8°C 21% 15.2 mph WSW24.5 kmh WSW 59.4 mph95.6 kmh 29.77 in1008.1 mb 0.00 in0.0 mm 0.00 in/hr0.0 mm/hr 0.00 in0.0 mm
02:40 AM 48.7°F9.3°C 11.4°F-11.4°C 22% 14.1 mph W22.7 kmh W 58.0 mph93.3 kmh 29.77 in1008.1 mb 0.00 in0.0 mm 0.00 in/hr0.0 mm/hr 0.00 in0.0 mm
02:50 AM 48.1°F8.9°C 11.9°F-11.2°C 23% 11.5 mph WSW18.5 kmh WSW 62.6 mph100.7 kmh 29.76 in1007.8 mb 0.00 in0.0 mm 0.00 in/hr0.0 mm/hr 0.00 in0.0 mm
03:01 AM 48.1°F8.9°C 15.5°F-9.2°C 27% 16.1 mph WSW25.9 kmh WSW 60.2 mph96.9 kmh 29.76 in1007.8 mb 0.00 in0.0 mm 0.00 in/hr0.0 mm/hr 0.00 in0.0 mm
03:11 AM 47.8°F8.8°C 16.8°F-8.4°C 29% 13.7 mph WSW22.0 kmh WSW 61.6 mph99.1 kmh 29.77 in1008.1 mb 0.00 in0.0 mm 0.00 in/hr0.0 mm/hr 0.00 in0.0 mm
03:22 AM 47.6°F8.7°C 19.7°F-6.8°C 33% 12.9 mph WSW20.8 kmh WSW 66.6 mph107.2 kmh 29.76 in1007.8 mb 0.00 in0.0 mm 0.00 in/hr0.0 mm/hr 0.00 in0.0 mm
03:33 AM 47.2°F8.4°C 20.0°F-6.7°C 34% 13.1 mph WSW21.1 kmh WSW 69.2 mph111.4 kmh 29.76 in1007.8 mb 0.00 in0.0 mm 0.00 in/hr0.0 mm/hr 0.00 in0.0 mm
03:43 AM 47.1°F8.4°C 21.3°F-5.9°C 36% 13.0 mph WSW20.9 kmh WSW 57.2 mph92.1 kmh 29.77 in1008.1 mb 0.00 in0.0 mm 0.00 in/hr0.0 mm/hr 0.00 in0.0 mm
03:54 AM 46.7°F8.2°C 21.6°F-5.8°C 37% 6.5 mph W10.5 kmh W 56.2 mph90.4 kmh 29.77 in1008.1 mb 0.00 in0.0 mm 0.00 in/hr0.0 mm/hr 0.00 in0.0 mm
04:04 AM 46.3°F7.9°C 22.5°F-5.3°C 39% 8.3 mph SSE13.4 kmh SSE 51.0 mph82.1 kmh 29.78 in1008.5 mb 0.00 in0.0 mm 0.00 in/hr0.0 mm/hr 0.00 in0.0 mm
04:15 AM 46.0°F7.8°C 23.4°F-4.8°C 41% 9.5 mph SSW15.3 kmh SSW 59.8 mph96.2 kmh 29.78 in1008.5 mb 0.00 in0.0 mm 0.00 in/hr0.0 mm/hr 0.00 in0.0 mm
04:25 AM 45.8°F7.7°C 24.4°F-4.2°C 43% 10.8 mph SW17.4 kmh SW 51.8 mph83.4 kmh 29.78 in1008.5 mb 0.00 in0.0 mm 0.00 in/hr0.0 mm/hr 0.00 in0.0 mm
04:36 AM 45.4°F7.4°C 25.2°F-3.8°C 45% 11.1 mph WSW17.9 kmh WSW 54.4 mph87.5 kmh 29.78 in1008.5 mb 0.00 in0.0 mm 0.00 in/hr0.0 mm/hr 0.00 in0.0 mm
04:46 AM 45.4°F7.4°C 25.7°F-3.5°C 46% 9.6 mph WSW15.4 kmh WSW 59.0 mph95.0 kmh 29.78 in1008.5 mb 0.00 in0.0 mm 0.00 in/hr0.0 mm/hr 0.00 in0.0 mm
04:57 AM 45.3°F7.4°C 26.2°F-3.2°C 47% 9.1 mph WNW14.6 kmh WNW 54.4 mph87.5 kmh 29.79 in1008.8 mb 0.00 in0.0 mm 0.00 in/hr0.0 mm/hr 0.00 in0.0 mm
05:07 AM 45.1°F7.3°C 27.0°F-2.8°C 49% 7.3 mph WSW11.7 kmh WSW 52.2 mph84.0 kmh 29.79 in1008.8 mb 0.00 in0.0 mm 0.00 in/hr0.0 mm/hr 0.00 in0.0 mm
05:18 AM 45.1°F7.3°C 27.5°F-2.5°C 50% 3.5 mph S5.6 kmh S 42.4 mph68.2 kmh 29.79 in1008.8 mb 0.00 in0.0 mm 0.00 in/hr0.0 mm/hr 0.00 in0.0 mm
05:28 AM 44.7°F7.1°C 27.6°F-2.4°C 51% 9.1 mph W14.6 kmh W 55.4 mph89.2 kmh 29.80 in1009.1 mb 0.00 in0.0 mm 0.00 in/hr0.0 mm/hr 0.00 in0.0 mm
05:39 AM 44.5°F6.9°C 28.4°F-2.0°C 53% 4.7 mph WSW7.6 kmh WSW 50.4 mph81.1 kmh 29.80 in1009.1 mb 0.00 in0.0 mm 0.00 in/hr0.0 mm/hr 0.00 in0.0 mm
05:49 AM 44.7°F7.1°C 27.6°F-2.4°C 51% 5.9 mph WSW9.5 kmh WSW 33.4 mph53.8 kmh 29.81 in1009.5 mb 0.00 in0.0 mm 0.00 in/hr0.0 mm/hr 0.00 in0.0 mm
06:00 AM 44.5°F6.9°C 27.0°F-2.8°C 50% 4.4 mph SSW7.1 kmh SSW 46.0 mph74.0 kmh 29.81 in1009.5 mb 0.00 in0.0 mm 0.00 in/hr0.0 mm/hr 0.00 in0.0 mm
06:11 AM 45.3°F7.4°C 27.2°F-2.7°C 49% 6.2 mph WSW10.0 kmh WSW 46.4 mph74.7 kmh 29.81 in1009.5 mb 0.00 in0.0 mm 0.00 in/hr0.0 mm/hr 0.00 in0.0 mm
06:21 AM 45.4°F7.4°C 27.3°F-2.6°C 49% 11.2 mph WSW18.0 kmh WSW 58.6 mph94.3 kmh 29.82 in1009.8 mb 0.00 in0.0 mm 0.00 in/hr0.0 mm/hr 0.00 in0.0 mm
06:32 AM 45.4°F7.4°C 27.8°F-2.3°C 50% 8.0 mph WSW12.9 kmh WSW 53.2 mph85.6 kmh 29.82 in1009.8 mb 0.00 in0.0 mm 0.00 in/hr0.0 mm/hr 0.00 in0.0 mm
06:42 AM 46.0°F7.8°C 28.4°F-2.0°C 50% 4.0 mph W6.4 kmh W 63.4 mph102.0 kmh 29.83 in1010.2 mb 0.00 in0.0 mm 0.00 in/hr0.0 mm/hr 0.00 in0.0 mm
06:53 AM 47.8°F8.8°C 29.0°F-1.7°C 48% 2.7 mph W4.3 kmh W 8.4 mph13.5 kmh 29.82 in1009.8 mb 0.00 in0.0 mm 0.00 in/hr0.0 mm/hr 0.00 in0.0 mm
07:04 AM 48.0°F8.9°C 28.7°F-1.8°C 47% 8.1 mph WSW13.0 kmh WSW 55.4 mph89.2 kmh 29.83 in1010.2 mb 0.00 in0.0 mm 0.00 in/hr0.0 mm/hr 0.00 in0.0 mm
07:14 AM 48.6°F9.2°C 29.8°F-1.2°C 48% 9.8 mph WSW15.8 kmh WSW 56.8 mph91.4 kmh 29.83 in1010.2 mb 0.00 in0.0 mm 0.00 in/hr0.0 mm/hr 0.00 in0.0 mm
07:25 AM 49.0°F9.4°C 29.5°F-1.4°C 47% 11.4 mph WSW18.3 kmh WSW 63.4 mph102.0 kmh 29.82 in1009.8 mb 0.00 in0.0 mm 0.00 in/hr0.0 mm/hr 0.00 in0.0 mm
07:35 AM 49.3°F9.6°C 29.3°F-1.5°C 46% 10.5 mph WSW16.9 kmh WSW 58.0 mph93.3 kmh 29.82 in1009.8 mb 0.00 in0.0 mm 0.00 in/hr0.0 mm/hr 0.00 in0.0 mm
07:46 AM 49.9°F9.9°C 29.8°F-1.2°C 46% 10.4 mph WSW16.7 kmh WSW 54.0 mph86.9 kmh 29.82 in1009.8 mb 0.00 in0.0 mm 0.00 in/hr0.0 mm/hr 0.00 in0.0 mm
07:56 AM 50.6°F10.3°C 29.9°F-1.2°C 45% 9.7 mph W15.6 kmh W 52.2 mph84.0 kmh 29.82 in1009.8 mb 0.00 in0.0 mm 0.00 in/hr0.0 mm/hr 0.00 in0.0 mm
08:07 AM 48.7°F9.3°C 28.8°F-1.8°C 46% 11.3 mph SW18.2 kmh SW 59.4 mph95.6 kmh 29.82 in1009.8 mb 0.00 in0.0 mm 0.00 in/hr0.0 mm/hr 0.00 in0.0 mm
08:17 AM 49.4°F9.7°C 29.4°F-1.4°C 46% 11.6 mph W18.7 kmh W 55.0 mph88.5 kmh 29.82 in1009.8 mb 0.00 in0.0 mm 0.00 in/hr0.0 mm/hr 0.00 in0.0 mm
08:28 AM 49.7°F9.8°C 30.2°F-1.0°C 47% 13.8 mph SW22.2 kmh SW 55.8 mph89.8 kmh 29.83 in1010.2 mb 0.00 in0.0 mm 0.00 in/hr0.0 mm/hr 0.00 in0.0 mm
08:38 AM 50.6°F10.3°C 29.9°F-1.2°C 45% 9.2 mph SW14.8 kmh SW 59.4 mph95.6 kmh 29.83 in1010.2 mb 0.00 in0.0 mm 0.00 in/hr0.0 mm/hr 0.00 in0.0 mm
08:49 AM 51.4°F10.8°C 28.3°F-2.1°C 41% 9.4 mph SW15.1 kmh SW 55.8 mph89.8 kmh 29.84 in1010.5 mb 0.00 in0.0 mm 0.00 in/hr0.0 mm/hr 0.00 in0.0 mm
08:59 AM 51.0°F10.6°C 27.9°F-2.3°C 41% 12.5 mph SW20.1 kmh SW 69.2 mph111.4 kmh 29.83 in1010.2 mb 0.00 in0.0 mm 0.00 in/hr0.0 mm/hr 0.00 in0.0 mm
09:10 AM 50.3°F10.2°C 27.4°F-2.6°C 41% 14.9 mph SW24.0 kmh SW 59.0 mph95.0 kmh 29.83 in1010.2 mb 0.00 in0.0 mm 0.00 in/hr0.0 mm/hr 0.00 in0.0 mm
09:20 AM 50.9°F10.5°C 26.6°F-3.0°C 39% 13.1 mph WSW21.1 kmh WSW 54.4 mph87.5 kmh 29.83 in1010.2 mb 0.00 in0.0 mm 0.00 in/hr0.0 mm/hr 0.00 in0.0 mm
09:31 AM 51.4°F10.8°C 27.1°F-2.7°C 39% 8.9 mph WSW14.3 kmh WSW 67.0 mph107.8 kmh 29.83 in1010.2 mb 0.00 in0.0 mm 0.00 in/hr0.0 mm/hr 0.00 in0.0 mm
09:41 AM 51.7°F10.9°C 26.7°F-2.9°C 38% 10.8 mph SW17.4 kmh SW 64.4 mph103.6 kmh 29.83 in1010.2 mb 0.00 in0.0 mm 0.00 in/hr0.0 mm/hr 0.00 in0.0 mm
09:52 AM 49.9°F9.9°C 25.1°F-3.8°C 38% 13.7 mph SW22.0 kmh SW 59.4 mph95.6 kmh 29.83 in1010.2 mb 0.00 in0.0 mm 0.00 in/hr0.0 mm/hr 0.00 in0.0 mm
10:02 AM 49.7°F9.8°C 26.2°F-3.2°C 40% 11.8 mph SW19.0 kmh SW 49.6 mph79.8 kmh 29.84 in1010.5 mb 0.00 in0.0 mm 0.00 in/hr0.0 mm/hr 0.00 in0.0 mm
10:13 AM 51.3°F10.7°C 27.0°F-2.8°C 39% 12.3 mph SW19.8 kmh SW 59.8 mph96.2 kmh 29.84 in1010.5 mb 0.00 in0.0 mm 0.00 in/hr0.0 mm/hr 0.00 in0.0 mm
10:23 AM 52.6°F11.4°C 25.5°F-3.6°C 35% 11.7 mph SW18.8 kmh SW 58.0 mph93.3 kmh 29.84 in1010.5 mb 0.00 in0.0 mm 0.00 in/hr0.0 mm/hr 0.00 in0.0 mm
10:34 AM 52.5°F11.4°C 26.1°F-3.3°C 36% 12.7 mph SW20.4 kmh SW 56.8 mph91.4 kmh 29.85 in1010.8 mb 0.00 in0.0 mm 0.00 in/hr0.0 mm/hr 0.00 in0.0 mm
10:44 AM 53.5°F11.9°C 27.0°F-2.8°C 36% 6.7 mph SW10.8 kmh SW 54.4 mph87.5 kmh 29.85 in1010.8 mb 0.00 in0.0 mm 0.00 in/hr0.0 mm/hr 0.00 in0.0 mm
10:55 AM 54.3°F12.4°C 25.5°F-3.6°C 33% 8.0 mph WSW12.9 kmh WSW 58.0 mph93.3 kmh 29.85 in1010.8 mb 0.00 in0.0 mm 0.00 in/hr0.0 mm/hr 0.00 in0.0 mm
11:05 AM 55.1°F12.8°C 26.3°F-3.2°C 33% 9.5 mph W15.3 kmh W 59.8 mph96.2 kmh 29.85 in1010.8 mb 0.00 in0.0 mm 0.00 in/hr0.0 mm/hr 0.00 in0.0 mm
11:16 AM 54.1°F12.3°C 25.4°F-3.7°C 33% 10.3 mph WSW16.6 kmh WSW 59.8 mph96.2 kmh 29.85 in1010.8 mb 0.00 in0.0 mm 0.00 in/hr0.0 mm/hr 0.00 in0.0 mm
11:26 AM 53.8°F12.1°C 25.9°F-3.4°C 34% 9.3 mph SW15.0 kmh SW 61.2 mph98.5 kmh 29.84 in1010.5 mb 0.00 in0.0 mm 0.00 in/hr0.0 mm/hr 0.00 in0.0 mm
11:37 AM 54.3°F12.4°C 27.6°F-2.4°C 36% 7.5 mph WNW12.1 kmh WNW 56.2 mph90.4 kmh 29.85 in1010.8 mb 0.00 in0.0 mm 0.00 in/hr0.0 mm/hr 0.00 in0.0 mm
11:47 AM 53.5°F11.9°C 27.0°F-2.8°C 36% 6.9 mph WSW11.1 kmh WSW 58.0 mph93.3 kmh 29.85 in1010.8 mb 0.00 in0.0 mm 0.00 in/hr0.0 mm/hr 0.00 in0.0 mm
11:58 AM 54.3°F12.4°C 29.7°F-1.3°C 39% 8.7 mph W14.0 kmh W 52.2 mph84.0 kmh 29.85 in1010.8 mb 0.00 in0.0 mm 0.00 in/hr0.0 mm/hr 0.00 in0.0 mm
12:08 PM 55.0°F12.8°C 29.6°F-1.3°C 38% 7.8 mph W12.6 kmh W 55.0 mph88.5 kmh 29.86 in1011.2 mb 0.00 in0.0 mm 0.00 in/hr0.0 mm/hr 0.00 in0.0 mm
12:19 PM 52.5°F11.4°C 29.9°F-1.2°C 42% 8.5 mph WSW13.7 kmh WSW 61.2 mph98.5 kmh 29.86 in1011.2 mb 0.00 in0.0 mm 0.00 in/hr0.0 mm/hr 0.00 in0.0 mm
12:29 PM 53.7°F12.1°C 27.2°F-2.7°C 36% 9.8 mph W15.8 kmh W 56.2 mph90.4 kmh 29.86 in1011.2 mb 0.00 in0.0 mm 0.00 in/hr0.0 mm/hr 0.00 in0.0 mm
12:40 PM 52.2°F11.2°C 32.5°F0.3°C 47% 11.6 mph WNW18.7 kmh WNW 59.4 mph95.6 kmh 29.85 in1010.8 mb 0.00 in0.0 mm 0.00 in/hr0.0 mm/hr 0.00 in0.0 mm
12:50 PM 52.8°F11.6°C 26.4°F-3.1°C 36% 6.6 mph W10.6 kmh W 55.4 mph89.2 kmh 29.86 in1011.2 mb 0.00 in0.0 mm 0.00 in/hr0.0 mm/hr 0.00 in0.0 mm
01:01 PM 54.0°F12.2°C 26.7°F-2.9°C 35% 5.5 mph SW8.9 kmh SW 58.0 mph93.3 kmh 29.86 in1011.2 mb 0.00 in0.0 mm 0.00 in/hr0.0 mm/hr 0.00 in0.0 mm
01:11 PM 50.8°F10.4°C 31.2°F-0.4°C 47% 10.2 mph W16.4 kmh W 50.0 mph80.5 kmh 29.86 in1011.2 mb 0.00 in0.0 mm 0.00 in/hr0.0 mm/hr 0.00 in0.0 mm
01:22 PM 50.6°F10.3°C 30.5°F-0.8°C 46% 2.6 mph WSW4.2 kmh WSW 53.2 mph85.6 kmh 29.86 in1011.2 mb 0.00 in0.0 mm 0.00 in/hr0.0 mm/hr 0.00 in0.0 mm
01:32 PM 48.8°F9.3°C 28.9°F-1.7°C 46% 5.9 mph WNW9.5 kmh WNW 8.0 mph12.9 kmh 29.86 in1011.2 mb 0.00 in0.0 mm 0.00 in/hr0.0 mm/hr 0.00 in0.0 mm
01:43 PM 51.6°F10.9°C 26.6°F-3.0°C 38% 9.9 mph WNW15.9 kmh WNW 51.0 mph82.1 kmh 29.86 in1011.2 mb 0.00 in0.0 mm 0.00 in/hr0.0 mm/hr 0.00 in0.0 mm
01:53 PM 51.1°F10.6°C 26.2°F-3.2°C 38% 5.3 mph WNW8.5 kmh WNW 58.0 mph93.3 kmh 29.86 in1011.2 mb 0.00 in0.0 mm 0.00 in/hr0.0 mm/hr 0.00 in0.0 mm
02:04 PM 52.4°F11.3°C 24.6°F-4.1°C 34% 5.4 mph W8.7 kmh W 10.6 mph17.1 kmh 29.86 in1011.2 mb 0.00 in0.0 mm 0.00 in/hr0.0 mm/hr 0.00 in0.0 mm
02:14 PM 52.1°F11.2°C 22.9°F-5.1°C 32% 8.0 mph W12.9 kmh W 47.8 mph76.9 kmh 29.87 in1011.5 mb 0.00 in0.0 mm 0.00 in/hr0.0 mm/hr 0.00 in0.0 mm
02:25 PM 51.5°F10.8°C 21.6°F-5.8°C 31% 10.3 mph WSW16.6 kmh WSW 61.6 mph99.1 kmh 29.87 in1011.5 mb 0.00 in0.0 mm 0.00 in/hr0.0 mm/hr 0.00 in0.0 mm
02:35 PM 52.0°F11.1°C 22.1°F-5.5°C 31% 5.3 mph WSW8.5 kmh WSW 53.6 mph86.3 kmh 29.86 in1011.2 mb 0.00 in0.0 mm 0.00 in/hr0.0 mm/hr 0.00 in0.0 mm
02:46 PM 51.2°F10.7°C 20.6°F-6.3°C 30% 9.4 mph WSW15.1 kmh WSW 52.6 mph84.7 kmh 29.87 in1011.5 mb 0.00 in0.0 mm 0.00 in/hr0.0 mm/hr 0.00 in0.0 mm
02:56 PM 50.9°F10.5°C 21.1°F-6.1°C 31% 0.6 mph W1.0 kmh W 55.4 mph89.2 kmh 29.87 in1011.5 mb 0.00 in0.0 mm 0.00 in/hr0.0 mm/hr 0.00 in0.0 mm
03:07 PM 51.2°F10.7°C 19.8°F-6.8°C 29% 9.5 mph WNW15.3 kmh WNW 47.8 mph76.9 kmh 29.87 in1011.5 mb 0.00 in0.0 mm 0.00 in/hr0.0 mm/hr 0.00 in0.0 mm
03:17 PM 51.5°F10.8°C 20.1°F-6.6°C 29% 3.1 mph W5.0 kmh W 59.0 mph95.0 kmh 29.87 in1011.5 mb 0.00 in0.0 mm 0.00 in/hr0.0 mm/hr 0.00 in0.0 mm
03:28 PM 46.0°F7.8°C 25.7°F-3.5°C 45% 11.2 mph NW18.0 kmh NW 50.0 mph80.5 kmh 29.87 in1011.5 mb 0.00 in0.0 mm 0.00 in/hr0.0 mm/hr 0.00 in0.0 mm
03:38 PM 45.2°F7.3°C 26.1°F-3.3°C 47% 13.6 mph NW21.9 kmh NW 59.4 mph95.6 kmh 29.87 in1011.5 mb 0.00 in0.0 mm 0.00 in/hr0.0 mm/hr 0.00 in0.0 mm
03:49 PM 44.8°F7.1°C 27.3°F-2.6°C 50% 15.1 mph NNW24.3 kmh NNW 52.6 mph84.7 kmh 29.88 in1011.9 mb 0.00 in0.0 mm 0.00 in/hr0.0 mm/hr 0.00 in0.0 mm
03:59 PM 45.9°F7.7°C 27.7°F-2.4°C 49% 11.1 mph NW17.9 kmh NW 53.2 mph85.6 kmh 29.88 in1011.9 mb 0.00 in0.0 mm 0.00 in/hr0.0 mm/hr 0.00 in0.0 mm
04:10 PM 44.2°F6.8°C 26.7°F-2.9°C 50% 15.4 mph NW24.8 kmh NW 53.2 mph85.6 kmh 29.89 in1012.2 mb 0.00 in0.0 mm 0.00 in/hr0.0 mm/hr 0.00 in0.0 mm
04:20 PM 44.5°F6.9°C 27.0°F-2.8°C 50% 11.1 mph NW17.9 kmh NW 54.0 mph86.9 kmh 29.89 in1012.2 mb 0.00 in0.0 mm 0.00 in/hr0.0 mm/hr 0.00 in0.0 mm
04:31 PM 42.9°F6.1°C 26.9°F-2.8°C 53% 13.0 mph NW20.9 kmh NW 51.0 mph82.1 kmh 29.89 in1012.2 mb 0.00 in0.0 mm 0.00 in/hr0.0 mm/hr 0.00 in0.0 mm
04:42 PM 42.2°F5.7°C 26.3°F-3.2°C 53% 16.1 mph WNW25.9 kmh WNW 55.0 mph88.5 kmh 29.90 in1012.5 mb 0.00 in0.0 mm 0.00 in/hr0.0 mm/hr 0.00 in0.0 mm
04:52 PM 42.3°F5.7°C 26.8°F-2.9°C 54% 13.6 mph NW21.9 kmh NW 48.6 mph78.2 kmh 29.90 in1012.5 mb 0.00 in0.0 mm 0.00 in/hr0.0 mm/hr 0.00 in0.0 mm
05:03 PM 41.3°F5.2°C 26.4°F-3.1°C 55% 11.3 mph WNW18.2 kmh WNW 54.0 mph86.9 kmh 29.91 in1012.9 mb 0.00 in0.0 mm 0.00 in/hr0.0 mm/hr 0.00 in0.0 mm
05:13 PM 41.7°F5.4°C 25.4°F-3.7°C 52% 9.6 mph NNW15.4 kmh NNW 59.0 mph95.0 kmh 29.91 in1012.9 mb 0.00 in0.0 mm 0.00 in/hr0.0 mm/hr 0.00 in0.0 mm
05:24 PM 42.6°F5.9°C 26.2°F-3.2°C 52% 3.3 mph NW5.3 kmh NW 53.2 mph85.6 kmh 29.91 in1012.9 mb 0.00 in0.0 mm 0.00 in/hr0.0 mm/hr 0.00 in0.0 mm
05:34 PM 41.6°F5.3°C 25.3°F-3.7°C 52% 6.7 mph W10.8 kmh W 12.8 mph20.6 kmh 29.91 in1012.9 mb 0.00 in0.0 mm 0.00 in/hr0.0 mm/hr 0.00 in0.0 mm
05:45 PM 42.3°F5.7°C 25.9°F-3.4°C 52% 5.7 mph WNW9.2 kmh WNW 51.8 mph83.4 kmh 29.91 in1012.9 mb 0.00 in0.0 mm 0.00 in/hr0.0 mm/hr 0.00 in0.0 mm
05:56 PM 42.2°F5.7°C 24.8°F-4.0°C 50% 3.3 mph W5.3 kmh W 6.2 mph10.0 kmh 29.92 in1013.2 mb 0.00 in0.0 mm 0.00 in/hr0.0 mm/hr 0.00 in0.0 mm
06:06 PM 42.6°F5.9°C 23.7°F-4.6°C 47% 1.2 mph W1.9 kmh W 8.0 mph12.9 kmh 29.93 in1013.5 mb 0.00 in0.0 mm 0.00 in/hr0.0 mm/hr 0.00 in0.0 mm
06:17 PM 42.6°F5.9°C 23.1°F-4.9°C 46% 1.2 mph W1.9 kmh W 8.0 mph12.9 kmh 29.93 in1013.5 mb 0.00 in0.0 mm 0.00 in/hr0.0 mm/hr 0.00 in0.0 mm
06:27 PM 42.9°F6.1°C 23.5°F-4.7°C 46% 1.7 mph W2.7 kmh W 2.6 mph4.2 kmh 29.93 in1013.5 mb 0.00 in0.0 mm 0.00 in/hr0.0 mm/hr 0.00 in0.0 mm
06:37 PM 43.2°F6.2°C 23.7°F-4.6°C 46% 1.7 mph NW2.7 kmh NW 7.0 mph11.3 kmh 29.93 in1013.5 mb 0.00 in0.0 mm 0.00 in/hr0.0 mm/hr 0.00 in0.0 mm
06:48 PM 43.3°F6.3°C 23.8°F-4.6°C 46% Calm Calm 1.2 mph1.9 kmh 29.93 in1013.5 mb 0.00 in0.0 mm 0.00 in/hr0.0 mm/hr 0.00 in0.0 mm
06:59 PM 42.9°F6.1°C 24.5°F-4.2°C 48% 0.9 mph WNW1.4 kmh WNW 1.2 mph1.9 kmh 29.93 in1013.5 mb 0.00 in0.0 mm 0.00 in/hr0.0 mm/hr 0.00 in0.0 mm
07:09 PM 42.9°F6.1°C 24.0°F-4.4°C 47% 1.2 mph WNW1.9 kmh WNW 1.6 mph2.6 kmh 29.94 in1013.9 mb 0.00 in0.0 mm 0.00 in/hr0.0 mm/hr 0.00 in0.0 mm
07:20 PM 42.9°F6.1°C 24.0°F-4.4°C 47% 3.6 mph WNW5.8 kmh WNW 4.8 mph7.7 kmh 29.94 in1013.9 mb 0.00 in0.0 mm 0.00 in/hr0.0 mm/hr 0.00 in0.0 mm
07:30 PM 42.9°F6.1°C 24.0°F-4.4°C 47% 2.9 mph WNW4.7 kmh WNW 4.4 mph7.1 kmh 29.94 in1013.9 mb 0.00 in0.0 mm 0.00 in/hr0.0 mm/hr 0.00 in0.0 mm
07:41 PM 42.7°F5.9°C 23.8°F-4.6°C 47% Calm Calm 0.4 mph0.6 kmh 29.95 in1014.2 mb 0.00 in0.0 mm 0.00 in/hr0.0 mm/hr 0.00 in0.0 mm
07:51 PM 42.7°F5.9°C 24.8°F-4.0°C 49% Calm Calm 2.6 mph4.2 kmh 29.95 in1014.2 mb 0.00 in0.0 mm 0.00 in/hr0.0 mm/hr 0.00 in0.0 mm
08:02 PM 42.0°F5.6°C 25.6°F-3.6°C 52% Calm Calm -- 29.96 in1014.6 mb 0.00 in0.0 mm 0.00 in/hr0.0 mm/hr 0.00 in0.0 mm
08:12 PM 42.2°F5.7°C 25.8°F-3.4°C 52% Calm Calm 2.6 mph4.2 kmh 29.96 in1014.6 mb 0.00 in0.0 mm 0.00 in/hr0.0 mm/hr 0.00 in0.0 mm
08:23 PM 41.7°F5.4°C 25.8°F-3.4°C 53% Calm Calm -- 29.96 in1014.6 mb 0.00 in0.0 mm 0.00 in/hr0.0 mm/hr 0.00 in0.0 mm
08:33 PM 41.7°F5.4°C 25.3°F-3.7°C 52% 2.3 mph W3.7 kmh W 3.0 mph4.8 kmh 29.96 in1014.6 mb 0.00 in0.0 mm 0.00 in/hr0.0 mm/hr 0.00 in0.0 mm
08:44 PM 41.7°F5.4°C 25.3°F-3.7°C 52% Calm Calm -- 29.97 in1014.9 mb 0.00 in0.0 mm 0.00 in/hr0.0 mm/hr 0.00 in0.0 mm
08:54 PM 41.8°F5.4°C 24.5°F-4.2°C 50% Calm Calm 3.0 mph4.8 kmh 29.97 in1014.9 mb 0.00 in0.0 mm 0.00 in/hr0.0 mm/hr 0.00 in0.0 mm
09:05 PM 42.0°F5.6°C 25.1°F-3.8°C 51% Calm Calm 1.6 mph2.6 kmh 29.98 in1015.2 mb 0.00 in0.0 mm 0.00 in/hr0.0 mm/hr 0.00 in0.0 mm
09:15 PM 42.0°F5.6°C 24.7°F-4.1°C 50% Calm Calm 4.0 mph6.4 kmh 29.99 in1015.6 mb 0.00 in0.0 mm 0.00 in/hr0.0 mm/hr 0.00 in0.0 mm
09:26 PM 42.4°F5.8°C 24.5°F-4.2°C 49% Calm Calm 2.2 mph3.5 kmh 29.99 in1015.6 mb 0.00 in0.0 mm 0.00 in/hr0.0 mm/hr 0.00 in0.0 mm
09:36 PM 42.2°F5.7°C 24.3°F-4.3°C 49% Calm Calm 3.4 mph5.5 kmh 29.99 in1015.6 mb 0.00 in0.0 mm 0.00 in/hr0.0 mm/hr 0.00 in0.0 mm
09:47 PM 42.2°F5.7°C 24.3°F-4.3°C 49% Calm Calm -- 30.00 in1015.9 mb 0.00 in0.0 mm 0.00 in/hr0.0 mm/hr 0.00 in0.0 mm
09:57 PM 42.0°F5.6°C 24.7°F-4.1°C 50% Calm Calm -- 30.00 in1015.9 mb 0.00 in0.0 mm 0.00 in/hr0.0 mm/hr 0.00 in0.0 mm
10:08 PM 41.8°F5.4°C 25.0°F-3.9°C 51% Calm Calm -- 30.00 in1015.9 mb 0.00 in0.0 mm 0.00 in/hr0.0 mm/hr 0.00 in0.0 mm
10:18 PM 41.7°F5.4°C 25.3°F-3.7°C 52% Calm Calm -- 30.00 in1015.9 mb 0.00 in0.0 mm 0.00 in/hr0.0 mm/hr 0.00 in0.0 mm
10:29 PM 41.5°F5.3°C 25.2°F-3.8°C 52% Calm Calm -- 30.00 in1015.9 mb 0.00 in0.0 mm 0.00 in/hr0.0 mm/hr 0.00 in0.0 mm
10:39 PM 41.5°F5.3°C 25.2°F-3.8°C 52% Calm Calm 1.6 mph2.6 kmh 30.00 in1015.9 mb 0.00 in0.0 mm 0.00 in/hr0.0 mm/hr 0.00 in0.0 mm
10:50 PM 41.3°F5.2°C 25.0°F-3.9°C 52% Calm Calm -- 30.00 in1015.9 mb 0.00 in0.0 mm 0.00 in/hr0.0 mm/hr 0.00 in0.0 mm
11:00 PM 41.3°F5.2°C 24.5°F-4.2°C 51% Calm Calm -- 30.00 in1015.9 mb 0.00 in0.0 mm 0.00 in/hr0.0 mm/hr 0.00 in0.0 mm
11:11 PM 41.1°F5.1°C 23.8°F-4.6°C 50% 0.6 mph W1.0 kmh W 2.2 mph3.5 kmh 29.99 in1015.6 mb 0.00 in0.0 mm 0.00 in/hr0.0 mm/hr 0.00 in0.0 mm
11:21 PM 40.6°F4.8°C 23.8°F-4.6°C 51% Calm Calm 2.6 mph4.2 kmh 29.99 in1015.6 mb 0.00 in0.0 mm 0.00 in/hr0.0 mm/hr 0.00 in0.0 mm
11:32 PM 40.0°F4.4°C 23.8°F-4.6°C 52% Calm Calm -- 30.00 in1015.9 mb 0.00 in0.0 mm 0.00 in/hr0.0 mm/hr 0.00 in0.0 mm
11:42 PM 39.7°F4.3°C 24.0°F-4.4°C 53% Calm Calm -- 30.00 in1015.9 mb 0.00 in0.0 mm 0.00 in/hr0.0 mm/hr 0.00 in0.0 mm
11:53 PM 39.3°F4.1°C 24.5°F-4.2°C 55% 1.7 mph WNW2.7 kmh WNW 2.2 mph3.5 kmh 30.00 in1015.9 mb 0.00 in0.0 mm 0.00 in/hr0.0 mm/hr 0.00 in0.0 mm